sensor_id;sensor_type;location;lat;lon;timestamp;pressure;altitude;pressure_sealevel;temperature;humidity
9709;BME280;4893;42.024;23.098;2022-08-20T00:00:37;96425.50;;;22.11;100.00
9709;BME280;4893;42.024;23.098;2022-08-20T00:03:25;96424.47;;;22.22;100.00
9709;BME280;4893;42.024;23.098;2022-08-20T00:06:15;96408.03;;;22.10;100.00
9709;BME280;4893;42.024;23.098;2022-08-20T00:08:41;96423.72;;;22.36;100.00
9709;BME280;4893;42.024;23.098;2022-08-20T00:11:09;96423.44;;;22.28;100.00
9709;BME280;4893;42.024;23.098;2022-08-20T00:13:39;96396.84;;;21.87;100.00
9709;BME280;4893;42.024;23.098;2022-08-20T00:16:06;96415.16;;;22.04;100.00
9709;BME280;4893;42.024;23.098;2022-08-20T00:18:32;96412.56;;;22.24;100.00
9709;BME280;4893;42.024;23.098;2022-08-20T00:21:01;96404.94;;;22.33;100.00
9709;BME280;4893;42.024;23.098;2022-08-20T00:23:26;96418.13;;;22.28;100.00
9709;BME280;4893;42.024;23.098;2022-08-20T00:25:52;96415.78;;;22.36;100.00
9709;BME280;4893;42.024;23.098;2022-08-20T00:28:18;96422.41;;;22.29;100.00
9709;BME280;4893;42.024;23.098;2022-08-20T00:30:44;96421.03;;;22.21;100.00
9709;BME280;4893;42.024;23.098;2022-08-20T00:33:18;96381.41;;;21.74;100.00
9709;BME280;4893;42.024;23.098;2022-08-20T00:35:48;96398.16;;;21.80;100.00
9709;BME280;4893;42.024;23.098;2022-08-20T00:38:14;96403.47;;;21.85;100.00
9709;BME280;4893;42.024;23.098;2022-08-20T00:40:50;96393.19;;;21.98;100.00
9709;BME280;4893;42.024;23.098;2022-08-20T00:46:03;96385.81;;;22.11;100.00
9709;BME280;4893;42.024;23.098;2022-08-20T00:48:30;96393.25;;;22.19;100.00
9709;BME280;4893;42.024;23.098;2022-08-20T00:51:10;96374.47;;;22.20;100.00
9709;BME280;4893;42.024;23.098;2022-08-20T00:53:37;96382.06;;;22.02;100.00
9709;BME280;4893;42.024;23.098;2022-08-20T00:56:05;96396.16;;;21.60;100.00
9709;BME280;4893;42.024;23.098;2022-08-20T00:58:31;96378.94;;;21.48;100.00
9709;BME280;4893;42.024;23.098;2022-08-20T01:00:57;96377.53;;;21.40;100.00
9709;BME280;4893;42.024;23.098;2022-08-20T01:03:23;96387.69;;;21.58;100.00
9709;BME280;4893;42.024;23.098;2022-08-20T01:05:50;96390.13;;;21.70;100.00
9709;BME280;4893;42.024;23.098;2022-08-20T01:08:17;96391.44;;;21.67;100.00
9709;BME280;4893;42.024;23.098;2022-08-20T01:10:46;96393.63;;;21.80;100.00
9709;BME280;4893;42.024;23.098;2022-08-20T01:13:17;96394.75;;;21.89;100.00
9709;BME280;4893;42.024;23.098;2022-08-20T01:15:47;96387.06;;;21.88;100.00
9709;BME280;4893;42.024;23.098;2022-08-20T01:18:17;96402.66;;;21.84;100.00
9709;BME280;4893;42.024;23.098;2022-08-20T01:20:59;96396.56;;;21.84;100.00
9709;BME280;4893;42.024;23.098;2022-08-20T01:26:09;96384.66;;;21.76;100.00
9709;BME280;4893;42.024;23.098;2022-08-20T01:28:55;96402.84;;;21.73;100.00
9709;BME280;4893;42.024;23.098;2022-08-20T01:31:26;96403.44;;;21.38;100.00
9709;BME280;4893;42.024;23.098;2022-08-20T01:33:53;96403.56;;;21.17;100.00
9709;BME280;4893;42.024;23.098;2022-08-20T01:36:29;96401.06;;;21.00;100.00
9709;BME280;4893;42.024;23.098;2022-08-20T01:38:59;96406.63;;;21.04;100.00
9709;BME280;4893;42.024;23.098;2022-08-20T01:42:04;96399.66;;;20.93;100.00
9709;BME280;4893;42.024;23.098;2022-08-20T01:44:36;96397.09;;;21.03;100.00
9709;BME280;4893;42.024;23.098;2022-08-20T01:47:30;96391.59;;;21.09;100.00
9709;BME280;4893;42.024;23.098;2022-08-20T01:50:00;96380.06;;;21.15;100.00
9709;BME280;4893;42.024;23.098;2022-08-20T01:52:38;96378.50;;;21.24;100.00
9709;BME280;4893;42.024;23.098;2022-08-20T01:55:06;96393.06;;;20.95;100.00
9709;BME280;4893;42.024;23.098;2022-08-20T01:57:32;96395.31;;;21.08;100.00
9709;BME280;4893;42.024;23.098;2022-08-20T01:59:59;96393.78;;;21.17;100.00
9709;BME280;4893;42.024;23.098;2022-08-20T02:02:26;96389.47;;;21.06;100.00
9709;BME280;4893;42.024;23.098;2022-08-20T02:04:52;96403.75;;;21.05;100.00
9709;BME280;4893;42.024;23.098;2022-08-20T02:07:20;96401.97;;;21.16;100.00
9709;BME280;4893;42.024;23.098;2022-08-20T02:09:47;96393.81;;;21.22;100.00
9709;BME280;4893;42.024;23.098;2022-08-20T02:12:13;96400.94;;;21.17;100.00
9709;BME280;4893;42.024;23.098;2022-08-20T02:14:45;96403.88;;;21.25;100.00
9709;BME280;4893;42.024;23.098;2022-08-20T02:17:13;96406.81;;;21.29;100.00
9709;BME280;4893;42.024;23.098;2022-08-20T02:19:43;96405.50;;;21.31;100.00
9709;BME280;4893;42.024;23.098;2022-08-20T02:22:20;96396.78;;;21.31;100.00
9709;BME280;4893;42.024;23.098;2022-08-20T02:24:46;96410.41;;;21.13;100.00
9709;BME280;4893;42.024;23.098;2022-08-20T02:27:12;96389.56;;;21.16;100.00
9709;BME280;4893;42.024;23.098;2022-08-20T02:29:38;96399.81;;;21.13;100.00
9709;BME280;4893;42.024;23.098;2022-08-20T02:32:04;96401.47;;;20.87;100.00
9709;BME280;4893;42.024;23.098;2022-08-20T02:34:31;96407.06;;;20.64;100.00
9709;BME280;4893;42.024;23.098;2022-08-20T02:36:59;96404.84;;;20.83;100.00
9709;BME280;4893;42.024;23.098;2022-08-20T02:39:24;96409.94;;;20.89;100.00
9709;BME280;4893;42.024;23.098;2022-08-20T02:41:51;96407.63;;;20.98;100.00
9709;BME280;4893;42.024;23.098;2022-08-20T02:44:16;96405.78;;;20.98;100.00
9709;BME280;4893;42.024;23.098;2022-08-20T02:46:44;96410.75;;;20.63;100.00
9709;BME280;4893;42.024;23.098;2022-08-20T02:49:10;96413.75;;;20.72;100.00
9709;BME280;4893;42.024;23.098;2022-08-20T02:51:35;96421.22;;;20.80;100.00
9709;BME280;4893;42.024;23.098;2022-08-20T02:54:01;96417.81;;;20.84;100.00
9709;BME280;4893;42.024;23.098;2022-08-20T02:56:26;96408.78;;;20.80;100.00
9709;BME280;4893;42.024;23.098;2022-08-20T02:58:52;96422.06;;;20.90;100.00
9709;BME280;4893;42.024;23.098;2022-08-20T03:01:17;96403.50;;;20.80;100.00
9709;BME280;4893;42.024;23.098;2022-08-20T03:03:43;96415.72;;;20.86;100.00
9709;BME280;4893;42.024;23.098;2022-08-20T03:06:10;96419.88;;;20.82;100.00
9709;BME280;4893;42.024;23.098;2022-08-20T03:08:36;96404.38;;;20.59;100.00
9709;BME280;4893;42.024;23.098;2022-08-20T03:11:02;96416.44;;;20.50;100.00
9709;BME280;4893;42.024;23.098;2022-08-20T03:13:27;96417.91;;;20.41;100.00
9709;BME280;4893;42.024;23.098;2022-08-20T03:15:58;96419.09;;;20.28;100.00
9709;BME280;4893;42.024;23.098;2022-08-20T03:18:26;96425.00;;;20.35;100.00
9709;BME280;4893;42.024;23.098;2022-08-20T03:20:52;96421.09;;;20.43;100.00
9709;BME280;4893;42.024;23.098;2022-08-20T03:23:19;96411.09;;;20.45;100.00
9709;BME280;4893;42.024;23.098;2022-08-20T03:25:46;96411.97;;;20.50;100.00
9709;BME280;4893;42.024;23.098;2022-08-20T03:28:12;96419.28;;;20.22;100.00
9709;BME280;4893;42.024;23.098;2022-08-20T03:30:39;96405.94;;;20.07;100.00
9709;BME280;4893;42.024;23.098;2022-08-20T03:33:05;96413.19;;;20.16;100.00
9709;BME280;4893;42.024;23.098;2022-08-20T03:35:31;96413.72;;;20.18;100.00
9709;BME280;4893;42.024;23.098;2022-08-20T03:37:58;96423.28;;;20.24;100.00
9709;BME280;4893;42.024;23.098;2022-08-20T03:40:30;96423.97;;;20.15;100.00
9709;BME280;4893;42.024;23.098;2022-08-20T03:42:56;96424.19;;;20.13;100.00
9709;BME280;4893;42.024;23.098;2022-08-20T03:45:24;96423.53;;;20.23;100.00
9709;BME280;4893;42.024;23.098;2022-08-20T03:47:50;96417.56;;;20.11;100.00
9709;BME280;4893;42.024;23.098;2022-08-20T03:50:18;96432.53;;;20.27;100.00
9709;BME280;4893;42.024;23.098;2022-08-20T03:52:44;96441.00;;;20.29;100.00
9709;BME280;4893;42.024;23.098;2022-08-20T03:55:10;96438.94;;;20.31;100.00
9709;BME280;4893;42.024;23.098;2022-08-20T03:57:46;96426.28;;;20.33;100.00
9709;BME280;4893;42.024;23.098;2022-08-20T04:00:13;96435.03;;;20.38;100.00
9709;BME280;4893;42.024;23.098;2022-08-20T04:02:39;96436.94;;;20.43;100.00
9709;BME280;4893;42.024;23.098;2022-08-20T04:05:05;96435.84;;;20.39;100.00
9709;BME280;4893;42.024;23.098;2022-08-20T04:07:31;96441.13;;;20.39;100.00
9709;BME280;4893;42.024;23.098;2022-08-20T04:09:56;96445.72;;;20.48;100.00
9709;BME280;4893;42.024;23.098;2022-08-20T04:12:23;96445.50;;;20.55;100.00
9709;BME280;4893;42.024;23.098;2022-08-20T04:14:50;96450.28;;;20.58;100.00
9709;BME280;4893;42.024;23.098;2022-08-20T04:17:18;96455.66;;;20.68;100.00
9709;BME280;4893;42.024;23.098;2022-08-20T04:19:43;96446.50;;;20.76;100.00
9709;BME280;4893;42.024;23.098;2022-08-20T04:22:09;96445.28;;;20.88;100.00
9709;BME280;4893;42.024;23.098;2022-08-20T04:24:38;96442.19;;;20.96;100.00
9709;BME280;4893;42.024;23.098;2022-08-20T04:27:03;96451.38;;;20.89;100.00
9709;BME280;4893;42.024;23.098;2022-08-20T04:29:30;96458.66;;;21.03;100.00
9709;BME280;4893;42.024;23.098;2022-08-20T04:31:56;96447.13;;;21.14;100.00
9709;BME280;4893;42.024;23.098;2022-08-20T04:34:21;96450.38;;;21.26;100.00
9709;BME280;4893;42.024;23.098;2022-08-20T04:36:47;96443.31;;;21.37;100.00
9709;BME280;4893;42.024;23.098;2022-08-20T04:39:13;96438.88;;;21.42;100.00
9709;BME280;4893;42.024;23.098;2022-08-20T04:41:40;96437.66;;;21.60;100.00
9709;BME280;4893;42.024;23.098;2022-08-20T04:44:06;96430.06;;;21.73;100.00
9709;BME280;4893;42.024;23.098;2022-08-20T04:46:32;96430.63;;;21.75;100.00
9709;BME280;4893;42.024;23.098;2022-08-20T04:48:58;96433.91;;;21.98;100.00
9709;BME280;4893;42.024;23.098;2022-08-20T04:51:25;96431.56;;;22.01;100.00
9709;BME280;4893;42.024;23.098;2022-08-20T04:53:54;96427.88;;;22.07;100.00
9709;BME280;4893;42.024;23.098;2022-08-20T04:56:22;96431.41;;;22.43;100.00
9709;BME280;4893;42.024;23.098;2022-08-20T04:58:48;96431.00;;;22.76;100.00
9709;BME280;4893;42.024;23.098;2022-08-20T05:01:15;96435.72;;;23.69;100.00
9709;BME280;4893;42.024;23.098;2022-08-20T05:03:42;96428.63;;;24.77;100.00
9709;BME280;4893;42.024;23.098;2022-08-20T05:06:09;96444.72;;;25.63;100.00
9709;BME280;4893;42.024;23.098;2022-08-20T05:08:35;96445.38;;;25.97;97.35
9709;BME280;4893;42.024;23.098;2022-08-20T05:11:03;96447.84;;;25.08;100.00
9709;BME280;4893;42.024;23.098;2022-08-20T05:13:28;96444.41;;;25.02;100.00
9709;BME280;4893;42.024;23.098;2022-08-20T05:15:54;96458.16;;;24.71;100.00
9709;BME280;4893;42.024;23.098;2022-08-20T05:18:22;96465.47;;;25.61;100.00
9709;BME280;4893;42.024;23.098;2022-08-20T05:20:49;96455.91;;;24.93;100.00
9709;BME280;4893;42.024;23.098;2022-08-20T05:23:17;96455.56;;;25.66;100.00
9709;BME280;4893;42.024;23.098;2022-08-20T05:25:46;96444.44;;;25.31;100.00
9709;BME280;4893;42.024;23.098;2022-08-20T05:28:25;96463.19;;;26.25;92.83
9709;BME280;4893;42.024;23.098;2022-08-20T05:30:52;96452.91;;;27.49;87.65
9709;BME280;4893;42.024;23.098;2022-08-20T05:33:20;96439.50;;;27.81;79.07
9709;BME280;4893;42.024;23.098;2022-08-20T05:35:47;96440.72;;;28.56;84.00
9709;BME280;4893;42.024;23.098;2022-08-20T05:38:15;96448.91;;;28.46;72.87
9709;BME280;4893;42.024;23.098;2022-08-20T05:40:42;96444.59;;;29.52;71.07
9709;BME280;4893;42.024;23.098;2022-08-20T05:43:08;96451.66;;;30.09;66.88
9709;BME280;4893;42.024;23.098;2022-08-20T05:45:35;96463.06;;;30.96;62.08
9709;BME280;4893;42.024;23.098;2022-08-20T05:48:09;96455.19;;;29.35;69.23
9709;BME280;4893;42.024;23.098;2022-08-20T05:50:40;96452.78;;;29.77;65.82
9709;BME280;4893;42.024;23.098;2022-08-20T05:53:06;96447.25;;;30.52;66.77
9709;BME280;4893;42.024;23.098;2022-08-20T05:55:33;96443.28;;;31.69;64.67
9709;BME280;4893;42.024;23.098;2022-08-20T05:58:04;96441.44;;;31.19;56.92
9709;BME280;4893;42.024;23.098;2022-08-20T06:00:30;96446.47;;;31.54;58.99
9709;BME280;4893;42.024;23.098;2022-08-20T06:02:57;96438.53;;;32.12;56.44
9709;BME280;4893;42.024;23.098;2022-08-20T06:05:41;96439.84;;;31.43;55.47
9709;BME280;4893;42.024;23.098;2022-08-20T06:08:08;96444.13;;;31.01;55.92
9709;BME280;4893;42.024;23.098;2022-08-20T06:10:36;96433.13;;;32.21;58.05
9709;BME280;4893;42.024;23.098;2022-08-20T06:13:02;96427.75;;;32.21;54.13
9709;BME280;4893;42.024;23.098;2022-08-20T06:15:32;96413.28;;;31.50;53.21
9709;BME280;4893;42.024;23.098;2022-08-20T06:17:58;96419.94;;;33.19;53.90
9709;BME280;4893;42.024;23.098;2022-08-20T06:20:24;96418.25;;;32.15;51.20
9709;BME280;4893;42.024;23.098;2022-08-20T06:22:50;96413.97;;;31.13;55.21
9709;BME280;4893;42.024;23.098;2022-08-20T06:25:16;96405.78;;;31.73;55.02
9709;BME280;4893;42.024;23.098;2022-08-20T06:27:42;96410.78;;;31.20;55.73
9709;BME280;4893;42.024;23.098;2022-08-20T06:30:10;96418.19;;;30.54;58.55
9709;BME280;4893;42.024;23.098;2022-08-20T06:32:37;96414.06;;;30.23;60.33
9709;BME280;4893;42.024;23.098;2022-08-20T06:35:04;96407.81;;;30.61;63.47
9709;BME280;4893;42.024;23.098;2022-08-20T06:37:31;96410.44;;;29.57;60.91
9709;BME280;4893;42.024;23.098;2022-08-20T06:40:24;96417.94;;;30.08;61.79
9709;BME280;4893;42.024;23.098;2022-08-20T06:42:51;96416.06;;;30.09;61.81
9709;BME280;4893;42.024;23.098;2022-08-20T06:45:23;96411.34;;;29.22;67.58
9709;BME280;4893;42.024;23.098;2022-08-20T06:47:50;96410.09;;;29.72;62.90
9709;BME280;4893;42.024;23.098;2022-08-20T06:50:19;96410.63;;;30.56;61.74
9709;BME280;4893;42.024;23.098;2022-08-20T06:52:45;96405.41;;;31.28;66.29
9709;BME280;4893;42.024;23.098;2022-08-20T06:55:12;96392.63;;;31.25;56.93
9709;BME280;4893;42.024;23.098;2022-08-20T06:57:39;96411.03;;;31.69;56.11
9709;BME280;4893;42.024;23.098;2022-08-20T07:00:07;96399.59;;;31.35;60.63
9709;BME280;4893;42.024;23.098;2022-08-20T07:02:33;96396.53;;;31.53;59.36
9709;BME280;4893;42.024;23.098;2022-08-20T07:05:00;96398.03;;;32.88;53.24
9709;BME280;4893;42.024;23.098;2022-08-20T07:07:25;96384.94;;;32.36;59.76
9709;BME280;4893;42.024;23.098;2022-08-20T07:10:01;96393.56;;;32.92;55.42
9709;BME280;4893;42.024;23.098;2022-08-20T07:12:27;96396.56;;;33.11;53.96
9709;BME280;4893;42.024;23.098;2022-08-20T07:14:52;96397.06;;;33.25;50.12
9709;BME280;4893;42.024;23.098;2022-08-20T07:17:18;96396.09;;;33.86;49.97
9709;BME280;4893;42.024;23.098;2022-08-20T07:19:43;96399.50;;;34.43;55.03
9709;BME280;4893;42.024;23.098;2022-08-20T07:22:09;96400.22;;;35.51;50.86
9709;BME280;4893;42.024;23.098;2022-08-20T07:24:36;96397.34;;;34.01;47.41
9709;BME280;4893;42.024;23.098;2022-08-20T07:27:02;96386.34;;;32.84;51.16
9709;BME280;4893;42.024;23.098;2022-08-20T07:29:28;96393.72;;;32.95;51.81
9709;BME280;4893;42.024;23.098;2022-08-20T07:32:13;96393.19;;;34.03;50.28
9709;BME280;4893;42.024;23.098;2022-08-20T07:34:57;96383.91;;;35.47;50.95
9709;BME280;4893;42.024;23.098;2022-08-20T07:37:23;96370.50;;;34.04;46.90
9709;BME280;4893;42.024;23.098;2022-08-20T07:39:49;96378.09;;;33.21;49.76
9709;BME280;4893;42.024;23.098;2022-08-20T07:42:14;96375.72;;;32.17;51.99
9709;BME280;4893;42.024;23.098;2022-08-20T07:44:39;96384.78;;;32.42;51.51
9709;BME280;4893;42.024;23.098;2022-08-20T07:47:05;96377.56;;;32.75;53.63
9709;BME280;4893;42.024;23.098;2022-08-20T07:49:31;96386.59;;;33.56;51.38
9709;BME280;4893;42.024;23.098;2022-08-20T07:51:57;96377.53;;;33.60;48.53
9709;BME280;4893;42.024;23.098;2022-08-20T07:54:22;96379.41;;;33.48;48.15
9709;BME280;4893;42.024;23.098;2022-08-20T07:56:48;96380.53;;;33.47;47.64
9709;BME280;4893;42.024;23.098;2022-08-20T07:59:14;96374.84;;;33.72;48.51
9709;BME280;4893;42.024;23.098;2022-08-20T08:01:39;96373.81;;;33.77;47.66
9709;BME280;4893;42.024;23.098;2022-08-20T08:04:04;96363.41;;;33.63;47.65
9709;BME280;4893;42.024;23.098;2022-08-20T08:06:30;96360.88;;;33.46;49.79
9709;BME280;4893;42.024;23.098;2022-08-20T08:09:06;96363.84;;;34.89;48.34
9709;BME280;4893;42.024;23.098;2022-08-20T08:11:35;96364.69;;;36.46;49.55
9709;BME280;4893;42.024;23.098;2022-08-20T08:14:03;96362.78;;;36.31;47.41
9709;BME280;4893;42.024;23.098;2022-08-20T08:16:31;96357.19;;;35.89;41.69
9709;BME280;4893;42.024;23.098;2022-08-20T08:18:56;96352.78;;;34.94;44.60
9709;BME280;4893;42.024;23.098;2022-08-20T08:21:23;96361.56;;;34.52;44.94
9709;BME280;4893;42.024;23.098;2022-08-20T08:23:49;96354.06;;;34.73;45.77
9709;BME280;4893;42.024;23.098;2022-08-20T08:26:15;96359.03;;;36.35;44.79
9709;BME280;4893;42.024;23.098;2022-08-20T08:28:41;96355.78;;;36.45;41.88
9709;BME280;4893;42.024;23.098;2022-08-20T08:31:11;96345.75;;;36.30;42.73
9709;BME280;4893;42.024;23.098;2022-08-20T08:33:37;96339.97;;;36.66;47.31
9709;BME280;4893;42.024;23.098;2022-08-20T08:36:06;96345.94;;;36.91;40.74
9709;BME280;4893;42.024;23.098;2022-08-20T08:38:35;96332.94;;;36.62;40.64
9709;BME280;4893;42.024;23.098;2022-08-20T08:43:48;96323.09;;;35.84;43.00
9709;BME280;4893;42.024;23.098;2022-08-20T08:46:20;96327.59;;;36.11;41.52
9709;BME280;4893;42.024;23.098;2022-08-20T08:48:50;96316.69;;;35.77;41.27
9709;BME280;4893;42.024;23.098;2022-08-20T08:51:34;96313.22;;;35.61;43.82
9709;BME280;4893;42.024;23.098;2022-08-20T08:54:02;96309.72;;;36.07;42.84
9709;BME280;4893;42.024;23.098;2022-08-20T08:56:29;96302.81;;;36.44;41.91
9709;BME280;4893;42.024;23.098;2022-08-20T08:59:02;96313.38;;;37.10;43.78
9709;BME280;4893;42.024;23.098;2022-08-20T09:01:32;96312.34;;;37.60;38.88
9709;BME280;4893;42.024;23.098;2022-08-20T09:04:01;96309.69;;;37.40;37.94
9709;BME280;4893;42.024;23.098;2022-08-20T09:06:29;96313.06;;;37.34;37.46
9709;BME280;4893;42.024;23.098;2022-08-20T09:08:58;96298.50;;;37.00;38.22
9709;BME280;4893;42.024;23.098;2022-08-20T09:11:26;96300.34;;;36.77;40.40
9709;BME280;4893;42.024;23.098;2022-08-20T09:13:52;96298.47;;;36.78;39.06
9709;BME280;4893;42.024;23.098;2022-08-20T09:16:25;96305.44;;;36.98;38.09
9709;BME280;4893;42.024;23.098;2022-08-20T09:18:51;96294.78;;;37.08;36.89
9709;BME280;4893;42.024;23.098;2022-08-20T09:21:17;96307.38;;;36.78;38.29
9709;BME280;4893;42.024;23.098;2022-08-20T09:23:42;96314.78;;;36.62;37.46
9709;BME280;4893;42.024;23.098;2022-08-20T09:26:08;96309.44;;;36.12;39.94
9709;BME280;4893;42.024;23.098;2022-08-20T09:28:34;96307.63;;;36.35;38.03
9709;BME280;4893;42.024;23.098;2022-08-20T09:31:00;96304.72;;;36.63;38.64
9709;BME280;4893;42.024;23.098;2022-08-20T09:33:25;96297.16;;;36.72;38.44
9709;BME280;4893;42.024;23.098;2022-08-20T09:35:51;96299.09;;;36.52;38.36
9709;BME280;4893;42.024;23.098;2022-08-20T09:38:17;96302.56;;;35.21;39.61
9709;BME280;4893;42.024;23.098;2022-08-20T09:40:42;96293.66;;;35.83;39.17
9709;BME280;4893;42.024;23.098;2022-08-20T09:43:08;96293.88;;;35.59;39.17
9709;BME280;4893;42.024;23.098;2022-08-20T09:45:35;96287.38;;;35.17;38.90
9709;BME280;4893;42.024;23.098;2022-08-20T09:48:01;96288.03;;;35.57;39.79
9709;BME280;4893;42.024;23.098;2022-08-20T09:50:29;96277.63;;;35.90;39.20
9709;BME280;4893;42.024;23.098;2022-08-20T09:52:57;96277.31;;;35.45;39.11
9709;BME280;4893;42.024;23.098;2022-08-20T09:55:30;96279.72;;;35.81;38.33
9709;BME280;4893;42.024;23.098;2022-08-20T09:57:57;96286.78;;;35.23;37.75
9709;BME280;4893;42.024;23.098;2022-08-20T10:00:23;96283.00;;;35.55;38.15
9709;BME280;4893;42.024;23.098;2022-08-20T10:02:49;96280.69;;;35.26;38.55
9709;BME280;4893;42.024;23.098;2022-08-20T10:05:15;96276.94;;;34.87;42.52
9709;BME280;4893;42.024;23.098;2022-08-20T10:07:41;96272.84;;;35.37;42.48
9709;BME280;4893;42.024;23.098;2022-08-20T10:10:10;96268.69;;;35.55;40.06
9709;BME280;4893;42.024;23.098;2022-08-20T10:12:36;96266.66;;;35.36;38.62
9709;BME280;4893;42.024;23.098;2022-08-20T10:15:03;96261.63;;;35.19;39.34
9709;BME280;4893;42.024;23.098;2022-08-20T10:17:28;96263.78;;;34.98;39.80
9709;BME280;4893;42.024;23.098;2022-08-20T10:19:54;96246.78;;;35.29;39.38
9709;BME280;4893;42.024;23.098;2022-08-20T10:22:19;96249.31;;;35.22;37.90
9709;BME280;4893;42.024;23.098;2022-08-20T10:24:45;96254.38;;;35.54;38.88
9709;BME280;4893;42.024;23.098;2022-08-20T10:27:10;96249.06;;;35.27;37.91
9709;BME280;4893;42.024;23.098;2022-08-20T10:29:35;96244.44;;;34.96;38.58
9709;BME280;4893;42.024;23.098;2022-08-20T10:32:10;96240.81;;;34.76;38.95
9709;BME280;4893;42.024;23.098;2022-08-20T10:34:38;96232.97;;;34.44;39.71
9709;BME280;4893;42.024;23.098;2022-08-20T10:37:04;96235.31;;;34.45;40.00
9709;BME280;4893;42.024;23.098;2022-08-20T10:39:29;96236.41;;;34.56;41.83
9709;BME280;4893;42.024;23.098;2022-08-20T10:41:55;96232.59;;;34.57;40.03
9709;BME280;4893;42.024;23.098;2022-08-20T10:44:20;96229.06;;;34.41;41.03
9709;BME280;4893;42.024;23.098;2022-08-20T10:46:46;96211.72;;;34.15;40.72
9709;BME280;4893;42.024;23.098;2022-08-20T10:49:11;96207.50;;;34.29;42.12
9709;BME280;4893;42.024;23.098;2022-08-20T10:51:37;96208.50;;;34.37;41.85
9709;BME280;4893;42.024;23.098;2022-08-20T10:54:02;96201.50;;;34.48;41.71
9709;BME280;4893;42.024;23.098;2022-08-20T10:56:28;96196.44;;;34.46;43.30
9709;BME280;4893;42.024;23.098;2022-08-20T10:58:53;96173.81;;;34.51;44.54
9709;BME280;4893;42.024;23.098;2022-08-20T11:01:19;96183.41;;;34.64;42.07
9709;BME280;4893;42.024;23.098;2022-08-20T11:03:44;96170.28;;;34.62;41.83
9709;BME280;4893;42.024;23.098;2022-08-20T11:06:10;96164.97;;;34.38;42.10
9709;BME280;4893;42.024;23.098;2022-08-20T11:08:35;96161.19;;;34.27;40.22
9709;BME280;4893;42.024;23.098;2022-08-20T11:11:02;96162.78;;;34.28;38.69
9709;BME280;4893;42.024;23.098;2022-08-20T11:13:28;96158.44;;;34.39;40.21
9709;BME280;4893;42.024;23.098;2022-08-20T11:15:53;96146.66;;;34.44;39.47
9709;BME280;4893;42.024;23.098;2022-08-20T11:18:18;96171.13;;;34.39;39.06
9709;BME280;4893;42.024;23.098;2022-08-20T11:20:44;96153.63;;;34.17;40.48
9709;BME280;4893;42.024;23.098;2022-08-20T11:23:09;96148.63;;;34.04;42.21
9709;BME280;4893;42.024;23.098;2022-08-20T11:25:35;96141.81;;;34.37;40.04
9709;BME280;4893;42.024;23.098;2022-08-20T11:28:00;96132.38;;;34.43;40.41
9709;BME280;4893;42.024;23.098;2022-08-20T11:30:32;96123.94;;;34.60;39.86
9709;BME280;4893;42.024;23.098;2022-08-20T11:32:58;96116.88;;;34.71;40.39
9709;BME280;4893;42.024;23.098;2022-08-20T11:35:25;96100.25;;;34.69;39.35
9709;BME280;4893;42.024;23.098;2022-08-20T11:37:52;96115.44;;;34.89;39.56
9709;BME280;4893;42.024;23.098;2022-08-20T11:40:18;96117.59;;;34.68;39.59
9709;BME280;4893;42.024;23.098;2022-08-20T11:42:44;96112.44;;;34.63;39.84
9709;BME280;4893;42.024;23.098;2022-08-20T11:45:12;96110.59;;;34.36;39.79
9709;BME280;4893;42.024;23.098;2022-08-20T11:47:37;96103.00;;;34.26;39.13
9709;BME280;4893;42.024;23.098;2022-08-20T11:52:33;96104.50;;;33.96;40.89
9709;BME280;4893;42.024;23.098;2022-08-20T11:54:59;96098.22;;;33.92;41.40
9709;BME280;4893;42.024;23.098;2022-08-20T11:57:27;96098.88;;;33.89;40.83
9709;BME280;4893;42.024;23.098;2022-08-20T11:59:55;96103.00;;;33.71;40.90
9709;BME280;4893;42.024;23.098;2022-08-20T12:02:21;96089.56;;;33.59;42.72
9709;BME280;4893;42.024;23.098;2022-08-20T12:04:47;96100.81;;;33.49;41.54
9709;BME280;4893;42.024;23.098;2022-08-20T12:07:17;96104.44;;;33.41;42.48
9709;BME280;4893;42.024;23.098;2022-08-20T12:09:44;96103.41;;;33.33;43.32
9709;BME280;4893;42.024;23.098;2022-08-20T12:12:11;96109.59;;;33.34;42.98
9709;BME280;4893;42.024;23.098;2022-08-20T12:14:37;96108.94;;;33.25;43.43
9709;BME280;4893;42.024;23.098;2022-08-20T12:17:19;96116.53;;;33.35;44.06
9709;BME280;4893;42.024;23.098;2022-08-20T12:19:48;96133.25;;;33.28;44.38
9709;BME280;4893;42.024;23.098;2022-08-20T12:22:14;96131.25;;;33.25;44.60
9709;BME280;4893;42.024;23.098;2022-08-20T12:24:39;96141.25;;;33.25;44.03
9709;BME280;4893;42.024;23.098;2022-08-20T12:27:24;96138.31;;;33.18;45.09
9709;BME280;4893;42.024;23.098;2022-08-20T12:29:51;96140.94;;;33.02;47.04
9709;BME280;4893;42.024;23.098;2022-08-20T12:32:18;96146.63;;;33.13;49.47
9709;BME280;4893;42.024;23.098;2022-08-20T12:34:44;96143.28;;;32.92;48.83
9709;BME280;4893;42.024;23.098;2022-08-20T12:37:12;96160.25;;;32.72;51.06
9709;BME280;4893;42.024;23.098;2022-08-20T12:39:40;96160.78;;;32.53;50.96
9709;BME280;4893;42.024;23.098;2022-08-20T12:42:06;96156.50;;;32.52;51.79
9709;BME280;4893;42.024;23.098;2022-08-20T12:44:32;96162.41;;;32.33;53.08
9709;BME280;4893;42.024;23.098;2022-08-20T12:49:37;96145.59;;;32.04;54.47
9709;BME280;4893;42.024;23.098;2022-08-20T12:52:03;96154.19;;;31.97;54.58
9709;BME280;4893;42.024;23.098;2022-08-20T12:54:29;96158.34;;;31.95;55.31
9709;BME280;4893;42.024;23.098;2022-08-20T12:56:56;96159.69;;;31.80;57.14
9709;BME280;4893;42.024;23.098;2022-08-20T12:59:24;96149.47;;;31.74;57.57
9709;BME280;4893;42.024;23.098;2022-08-20T13:01:51;96134.91;;;31.75;56.93
9709;BME280;4893;42.024;23.098;2022-08-20T13:04:17;96111.41;;;31.72;57.64
9709;BME280;4893;42.024;23.098;2022-08-20T13:06:42;96117.91;;;31.71;58.35
9709;BME280;4893;42.024;23.098;2022-08-20T13:09:08;96120.59;;;31.71;58.29
9709;BME280;4893;42.024;23.098;2022-08-20T13:11:33;96118.28;;;31.61;58.15
9709;BME280;4893;42.024;23.098;2022-08-20T13:13:58;96114.25;;;31.55;60.54
9709;BME280;4893;42.024;23.098;2022-08-20T13:16:24;96104.03;;;31.48;60.57
9709;BME280;4893;42.024;23.098;2022-08-20T13:18:49;96105.53;;;31.58;59.91
9709;BME280;4893;42.024;23.098;2022-08-20T13:21:15;96103.75;;;31.62;59.29
9709;BME280;4893;42.024;23.098;2022-08-20T13:23:41;96113.94;;;31.68;58.47